createdAt,value
2018-04-29T00:00:18.869Z,6.17
2018-04-29T00:02:47.150Z,6.97
2018-04-29T00:05:15.391Z,7.00
2018-04-29T00:07:43.540Z,6.43
2018-04-29T00:10:11.582Z,6.47
2018-04-29T00:12:39.599Z,6.63
2018-04-29T00:15:07.968Z,6.50
2018-04-29T00:17:35.971Z,6.53
2018-04-29T00:20:04.255Z,6.00
2018-04-29T00:22:32.493Z,6.37
2018-04-29T00:25:00.740Z,7.07
2018-04-29T00:27:28.986Z,6.00
2018-04-29T00:29:57.225Z,6.27
2018-04-29T00:32:25.617Z,6.63
2018-04-29T00:34:53.853Z,6.50
2018-04-29T00:37:22.149Z,7.00
2018-04-29T00:39:50.391Z,6.80
2018-04-29T00:42:18.634Z,7.80
2018-04-29T00:44:46.878Z,7.60
2018-04-29T00:47:15.906Z,7.10
2018-04-29T00:49:44.082Z,8.00
2018-04-29T00:52:12.924Z,7.60
2018-04-29T00:54:41.176Z,7.47
2018-04-29T00:57:09.227Z,6.93
2018-04-29T00:59:37.401Z,8.03
2018-04-29T01:02:05.442Z,7.57
2018-04-29T01:04:33.758Z,8.00
2018-04-29T01:07:02.048Z,8.03
2018-04-29T01:09:30.946Z,7.90
2018-04-29T01:11:59.061Z,8.37
2018-04-29T01:14:27.311Z,8.17
2018-04-29T01:16:55.572Z,8.30
2018-04-29T01:19:23.998Z,8.43
2018-04-29T01:21:52.290Z,8.67
2018-04-29T01:24:21.311Z,8.17
2018-04-29T01:26:49.516Z,7.63
2018-04-29T01:29:17.686Z,7.60
2018-04-29T01:31:45.701Z,8.47
2018-04-29T01:34:13.890Z,7.93
2018-04-29T01:36:41.936Z,8.30
2018-04-29T01:39:10.075Z,8.83
2018-04-29T01:41:38.095Z,8.80
2018-04-29T01:44:06.270Z,7.70
2018-04-29T01:46:34.314Z,9.13
2018-04-29T01:49:02.566Z,8.87
2018-04-29T01:51:31.512Z,8.87
2018-04-29T01:54:00.280Z,8.47
2018-04-29T01:56:28.464Z,8.90
2018-04-29T01:58:56.669Z,7.97
2018-04-29T02:01:24.949Z,8.83
2018-04-29T02:03:53.193Z,8.10
2018-04-29T02:06:21.434Z,8.53
2018-04-29T02:08:49.680Z,8.07
2018-04-29T02:11:17.778Z,7.97
2018-04-29T02:13:45.967Z,8.27
2018-04-29T02:16:14.136Z,8.30
2018-04-29T02:18:42.977Z,8.20
2018-04-29T02:21:11.993Z,8.73
2018-04-29T02:23:41.100Z,9.20
2018-04-29T02:26:09.340Z,9.13
2018-04-29T02:28:37.583Z,9.50
2018-04-29T02:31:05.640Z,8.90
2018-04-29T02:33:34.731Z,9.03
2018-04-29T02:36:02.772Z,8.53
2018-04-29T02:38:30.891Z,7.90
2018-04-29T02:40:59.141Z,9.60
2018-04-29T02:43:27.434Z,9.70
2018-04-29T02:45:55.616Z,8.90
2018-04-29T02:48:24.006Z,9.73
2018-04-29T02:50:52.164Z,9.77
2018-04-29T02:53:20.297Z,9.60
2018-04-29T02:55:48.613Z,10.07
2018-04-29T02:58:16.786Z,9.40
2018-04-29T03:00:44.935Z,10.00
2018-04-29T03:03:13.175Z,8.93
2018-04-29T03:05:41.226Z,9.70
2018-04-29T03:08:09.348Z,9.60
2018-04-29T03:10:37.390Z,10.10
2018-04-29T03:13:05.552Z,9.90
2018-04-29T03:15:33.806Z,9.73
2018-04-29T03:18:01.845Z,9.90
2018-04-29T03:20:29.955Z,10.27
2018-04-29T03:22:58.137Z,10.50
2018-04-29T03:25:26.261Z,10.20
2018-04-29T03:27:54.420Z,10.17
2018-04-29T03:30:22.611Z,10.27
2018-04-29T03:32:50.850Z,10.23
2018-04-29T03:35:19.149Z,11.30
2018-04-29T03:37:47.334Z,10.63
2018-04-29T03:40:15.634Z,11.63
2018-04-29T03:42:43.876Z,11.50
2018-04-29T03:45:12.122Z,11.43
2018-04-29T03:47:40.361Z,11.30
2018-04-29T03:50:08.504Z,11.23
2018-04-29T03:52:36.416Z,11.60
2018-04-29T03:55:05.059Z,12.30
2018-04-29T03:57:44.873Z,12.00
2018-04-29T04:03:26.640Z,11.90
2018-04-29T04:05:54.760Z,11.57
2018-04-29T04:08:22.727Z,11.20
2018-04-29T04:10:50.970Z,11.43
2018-04-29T04:13:19.213Z,10.27
2018-04-29T04:15:47.462Z,9.33
2018-04-29T04:18:15.459Z,10.60
2018-04-29T04:20:43.743Z,10.57
2018-04-29T04:23:11.991Z,9.70
2018-04-29T04:25:40.033Z,10.17
2018-04-29T04:28:08.155Z,9.77
2018-04-29T04:30:36.457Z,9.27
2018-04-29T04:33:05.724Z,9.00
2018-04-29T04:35:33.939Z,9.40
2018-04-29T04:38:02.189Z,9.33
2018-04-29T04:40:30.393Z,8.27
2018-04-29T04:42:59.302Z,8.23
2018-04-29T04:45:27.477Z,8.33
2018-04-29T04:47:56.245Z,8.00
2018-04-29T04:50:24.425Z,7.40
2018-04-29T04:52:52.554Z,5.73
2018-04-29T04:55:20.645Z,4.70
2018-04-29T04:57:49.686Z,3.67
2018-04-29T05:00:17.985Z,3.20
2018-04-29T05:02:46.575Z,2.70
2018-04-29T05:05:14.563Z,2.20
2018-04-29T05:07:42.713Z,2.20
2018-04-29T05:10:10.952Z,1.70
2018-04-29T05:12:39.138Z,1.93
2018-04-29T05:15:07.446Z,1.77
2018-04-29T05:17:35.681Z,1.60
2018-04-29T05:20:04.338Z,1.70
2018-04-29T05:22:32.559Z,1.90
2018-04-29T05:25:00.607Z,1.90
2018-04-29T05:27:28.658Z,1.50
2018-04-29T05:29:56.885Z,1.83
2018-04-29T05:32:25.137Z,1.80
2018-04-29T05:34:53.379Z,1.93
2018-04-29T05:37:21.823Z,1.63
2018-04-29T05:39:50.056Z,2.00
2018-04-29T05:42:18.107Z,1.80
2018-04-29T05:44:46.051Z,1.63
2018-04-29T05:47:14.154Z,1.67
2018-04-29T05:49:42.245Z,2.00
2018-04-29T05:52:10.491Z,1.90
2018-04-29T05:54:38.607Z,1.80
2018-04-29T05:57:06.723Z,2.17
2018-04-29T05:59:34.796Z,2.40
2018-04-29T06:02:03.071Z,2.40
2018-04-29T06:04:31.308Z,2.53
2018-04-29T06:06:59.510Z,2.90
2018-04-29T06:09:27.800Z,2.90
2018-04-29T06:11:56.040Z,2.60
2018-04-29T06:14:25.072Z,2.80
2018-04-29T06:16:53.312Z,2.70
2018-04-29T06:19:21.551Z,2.63
2018-04-29T06:21:49.720Z,2.47
2018-04-29T06:24:18.624Z,2.67
2018-04-29T06:26:46.805Z,2.50
2018-04-29T06:29:15.111Z,2.40
2018-04-29T06:31:43.155Z,2.27
2018-04-29T06:34:11.401Z,2.63
2018-04-29T06:36:39.402Z,2.40
2018-04-29T06:39:07.565Z,2.50
2018-04-29T06:41:35.535Z,2.20
2018-04-29T06:44:03.785Z,1.90
2018-04-29T06:46:32.807Z,2.30
2018-04-29T06:49:01.057Z,2.20
2018-04-29T06:51:29.234Z,2.50
2018-04-29T06:53:57.535Z,2.40
2018-04-29T06:56:25.587Z,2.30
2018-04-29T06:58:53.822Z,2.40
2018-04-29T07:01:22.064Z,2.40
2018-04-29T07:03:50.237Z,2.20
2018-04-29T07:06:19.456Z,2.17
2018-04-29T07:08:48.322Z,2.57
2018-04-29T07:11:17.199Z,2.60
2018-04-29T07:13:45.440Z,2.60
2018-04-29T07:16:13.444Z,2.47
2018-04-29T07:18:41.340Z,2.60
2018-04-29T07:21:09.508Z,2.83
2018-04-29T07:23:38.350Z,2.40
2018-04-29T07:26:07.264Z,2.60
2018-04-29T07:28:35.559Z,2.23
2018-04-29T07:31:03.728Z,2.30
2018-04-29T07:33:31.870Z,2.20
2018-04-29T07:36:00.173Z,2.43
2018-04-29T07:38:28.456Z,2.67
2018-04-29T07:40:56.447Z,3.07
2018-04-29T07:43:24.746Z,2.50
2018-04-29T07:45:52.979Z,2.60
2018-04-29T07:48:21.231Z,2.47
2018-04-29T07:50:49.473Z,2.57
2018-04-29T07:53:17.717Z,2.80
2018-04-29T07:55:45.898Z,2.60
2018-04-29T07:58:14.790Z,2.90
2018-04-29T08:00:43.057Z,2.80
2018-04-29T08:03:11.151Z,2.53
2018-04-29T08:05:39.125Z,2.93
2018-04-29T08:08:07.372Z,3.20
2018-04-29T08:10:35.553Z,3.43
2018-04-29T08:13:03.851Z,3.20
2018-04-29T08:15:32.449Z,2.97
2018-04-29T08:18:00.730Z,3.10
2018-04-29T08:20:28.974Z,3.20
2018-04-29T08:22:57.218Z,2.60
2018-04-29T08:25:25.458Z,2.30
2018-04-29T08:27:53.600Z,2.30
2018-04-29T08:30:21.747Z,2.67
2018-04-29T08:32:49.983Z,2.50
2018-04-29T08:35:18.039Z,2.87
2018-04-29T08:37:46.287Z,2.20
2018-04-29T08:40:14.520Z,2.60
2018-04-29T08:42:42.651Z,2.93
2018-04-29T08:45:10.822Z,2.63
2018-04-29T08:47:39.443Z,2.80
2018-04-29T08:50:07.733Z,2.70
2018-04-29T08:52:35.929Z,3.00
2018-04-29T08:55:04.173Z,3.40
2018-04-29T08:57:32.189Z,3.27
2018-04-29T09:00:00.460Z,3.60
2018-04-29T09:02:28.710Z,3.80
2018-04-29T09:04:56.946Z,3.43
2018-04-29T09:07:25.194Z,3.90
2018-04-29T09:09:54.816Z,3.47
2018-04-29T09:12:22.937Z,3.60
2018-04-29T09:14:50.860Z,3.40
2018-04-29T09:17:19.141Z,3.43
2018-04-29T09:19:47.333Z,3.97
2018-04-29T09:22:15.232Z,3.57
2018-04-29T09:24:43.471Z,3.53
2018-04-29T09:27:11.719Z,2.93
2018-04-29T09:29:39.952Z,3.20
2018-04-29T09:32:08.206Z,3.03
2018-04-29T09:34:36.387Z,3.07
2018-04-29T09:37:04.712Z,3.30
2018-04-29T09:39:32.930Z,3.10
2018-04-29T09:42:00.890Z,3.77
2018-04-29T09:44:28.911Z,3.73
2018-04-29T09:46:56.832Z,3.00
2018-04-29T09:49:24.867Z,3.20
2018-04-29T09:51:53.747Z,3.57
2018-04-29T09:54:21.991Z,3.13
2018-04-29T09:56:50.244Z,3.23
2018-04-29T09:59:19.262Z,3.33
2018-04-29T10:01:53.402Z,3.50
2018-04-29T10:04:21.543Z,3.13
2018-04-29T10:06:49.503Z,3.43
2018-04-29T10:09:17.506Z,3.17
2018-04-29T10:11:45.668Z,2.90
2018-04-29T10:14:13.827Z,2.63
2018-04-29T10:16:41.957Z,2.57
2018-04-29T10:19:10.313Z,2.43
2018-04-29T10:21:38.512Z,2.40
2018-04-29T10:24:06.799Z,2.67
2018-04-29T10:26:35.040Z,2.80
2018-04-29T10:29:03.059Z,2.80
2018-04-29T10:31:31.328Z,4.30
2018-04-29T10:33:59.572Z,4.23
2018-04-29T10:36:27.767Z,3.47
2018-04-29T10:38:56.057Z,5.23
2018-04-29T10:41:24.298Z,4.13
2018-04-29T10:43:52.311Z,3.63
2018-04-29T10:46:20.585Z,4.03
2018-04-29T10:48:48.701Z,3.10
2018-04-29T10:51:16.817Z,4.17
2018-04-29T10:53:45.127Z,4.67
2018-04-29T10:56:13.755Z,5.07
2018-04-29T10:58:41.899Z,4.90
2018-04-29T11:01:09.803Z,4.10
2018-04-29T11:03:37.978Z,3.83
2018-04-29T11:06:06.070Z,4.83
2018-04-29T11:08:35.163Z,4.50
2018-04-29T11:11:03.280Z,5.10
2018-04-29T11:13:31.255Z,4.87
2018-04-29T11:15:59.490Z,5.77
2018-04-29T11:18:27.739Z,6.23
2018-04-29T11:20:55.981Z,5.90
2018-04-29T11:23:24.167Z,7.27
2018-04-29T11:25:52.468Z,6.40
2018-04-29T11:28:21.299Z,6.60
2018-04-29T11:30:49.495Z,6.33
2018-04-29T11:33:17.785Z,6.07
2018-04-29T11:35:46.030Z,5.67
2018-04-29T11:38:14.394Z,6.57
2018-04-29T11:40:43.318Z,6.10
2018-04-29T11:43:11.540Z,5.87
2018-04-29T11:45:39.546Z,6.20
2018-04-29T11:48:07.763Z,6.03
2018-04-29T11:50:36.418Z,5.00
2018-04-29T11:53:04.607Z,4.03
2018-04-29T11:55:32.714Z,3.50
2018-04-29T11:58:00.995Z,3.73
2018-04-29T12:00:29.500Z,3.10
2018-04-29T12:02:57.676Z,3.80
2018-04-29T12:05:26.637Z,4.00
2018-04-29T12:07:55.537Z,3.60
2018-04-29T12:10:23.781Z,4.07
2018-04-29T12:12:51.998Z,4.43
2018-04-29T12:15:20.266Z,4.63
2018-04-29T12:17:48.511Z,4.30
2018-04-29T12:20:16.751Z,3.40
2018-04-29T12:22:44.993Z,3.73
2018-04-29T12:25:13.238Z,3.80
2018-04-29T12:27:41.415Z,3.23
2018-04-29T12:30:10.254Z,3.17
2018-04-29T12:32:38.553Z,3.27
2018-04-29T12:35:06.740Z,3.60
2018-04-29T12:37:35.037Z,3.60
2018-04-29T12:40:03.285Z,3.23
2018-04-29T12:42:31.522Z,3.50
2018-04-29T12:44:59.770Z,3.03
2018-04-29T12:47:27.948Z,2.80
2018-04-29T12:49:56.015Z,3.33
2018-04-29T12:52:24.234Z,3.20
2018-04-29T12:54:53.252Z,3.70
2018-04-29T12:57:22.351Z,4.03
2018-04-29T12:59:50.485Z,5.53
2018-04-29T13:02:18.577Z,5.40
2018-04-29T13:04:47.827Z,4.83
2018-04-29T13:07:16.110Z,4.30
2018-04-29T13:09:44.281Z,5.43
2018-04-29T13:12:12.944Z,7.00
2018-04-29T13:14:42.013Z,6.87
2018-04-29T13:17:10.155Z,5.40
2018-04-29T13:19:38.174Z,7.50
2018-04-29T13:22:06.350Z,7.07
2018-04-29T13:24:34.355Z,8.23
2018-04-29T13:27:02.637Z,8.37
2018-04-29T13:29:30.848Z,8.87
2018-04-29T13:31:59.657Z,7.10
2018-04-29T13:34:27.899Z,8.17
2018-04-29T13:36:56.785Z,8.30
2018-04-29T13:39:25.036Z,9.50
2018-04-29T13:41:53.252Z,10.70
2018-04-29T13:44:21.513Z,8.60
2018-04-29T13:46:50.488Z,10.43
2018-04-29T13:49:18.504Z,7.83
2018-04-29T13:51:46.842Z,8.53
2018-04-29T13:54:15.134Z,7.10
2018-04-29T13:56:43.314Z,8.07
2018-04-29T13:59:11.567Z,8.10
2018-04-29T14:01:39.559Z,7.50
2018-04-29T14:04:07.615Z,8.87
2018-04-29T14:06:35.780Z,6.23
2018-04-29T14:09:04.328Z,6.90
2018-04-29T14:11:33.552Z,7.77
2018-04-29T14:14:01.799Z,6.83
2018-04-29T14:16:29.972Z,6.57
2018-04-29T14:18:59.015Z,6.47
2018-04-29T14:21:27.308Z,6.60
2018-04-29T14:23:55.419Z,8.27
2018-04-29T14:26:23.564Z,8.30
2018-04-29T14:28:51.839Z,9.23
2018-04-29T14:31:20.074Z,8.60
2018-04-29T14:33:48.323Z,7.53
2018-04-29T14:36:16.570Z,8.90
2018-04-29T14:38:44.795Z,7.90
2018-04-29T14:41:12.999Z,7.60
2018-04-29T14:43:41.293Z,7.70
2018-04-29T14:46:09.536Z,5.43
2018-04-29T14:48:38.370Z,6.77
2018-04-29T14:51:06.555Z,5.87
2018-04-29T14:53:34.712Z,5.13
2018-04-29T14:56:02.733Z,3.80
2018-04-29T14:58:30.944Z,1.93
2018-04-29T15:00:59.186Z,2.30
2018-04-29T15:03:27.292Z,2.47
2018-04-29T15:05:55.279Z,2.30
2018-04-29T15:08:23.520Z,2.67
2018-04-29T15:10:51.518Z,2.33
2018-04-29T15:13:19.761Z,2.83
2018-04-29T15:15:48.058Z,2.40
2018-04-29T15:18:27.843Z,2.30
2018-04-29T15:20:56.090Z,2.80
2018-04-29T15:23:24.377Z,2.90
2018-04-29T15:25:52.521Z,3.13
2018-04-29T15:28:20.667Z,3.10
2018-04-29T15:30:48.905Z,3.03
2018-04-29T15:33:17.162Z,2.50
2018-04-29T15:35:46.089Z,2.60
2018-04-29T15:38:14.238Z,3.00
2018-04-29T15:40:42.531Z,2.20
2018-04-29T15:43:11.506Z,4.30
2018-04-29T15:45:39.739Z,2.20
2018-04-29T15:48:07.925Z,2.60
2018-04-29T15:50:36.236Z,2.70
2018-04-29T15:53:04.077Z,3.40
2018-04-29T15:55:32.318Z,2.70
2018-04-29T15:58:00.567Z,2.43
2018-04-29T16:00:29.003Z,2.50
2018-04-29T16:02:57.178Z,3.00
2018-04-29T16:05:25.876Z,2.80
2018-04-29T16:07:53.929Z,2.57
2018-04-29T16:10:22.164Z,3.20
2018-04-29T16:12:50.816Z,2.43
2018-04-29T16:15:19.043Z,2.20
2018-04-29T16:17:47.157Z,2.43
2018-04-29T16:20:15.198Z,2.57
2018-04-29T16:22:43.376Z,3.17
2018-04-29T16:25:11.619Z,3.67
2018-04-29T16:27:39.861Z,2.40
2018-04-29T16:30:08.102Z,1.63
2018-04-29T16:32:36.346Z,1.63
2018-04-29T16:35:04.578Z,2.03
2018-04-29T16:37:32.931Z,1.80
2018-04-29T16:40:01.014Z,1.60
2018-04-29T16:42:30.106Z,1.77
2018-04-29T16:44:58.344Z,1.50
2018-04-29T16:47:26.587Z,2.00
2018-04-29T16:49:54.789Z,1.70
2018-04-29T16:52:23.073Z,1.60
2018-04-29T16:54:51.063Z,2.30
2018-04-29T16:57:19.360Z,2.17
2018-04-29T16:59:47.603Z,2.60
2018-04-29T17:02:15.846Z,2.70
2018-04-29T17:04:44.040Z,1.73
2018-04-29T17:07:12.332Z,1.70
2018-04-29T17:09:40.445Z,1.90
2018-04-29T17:12:08.619Z,1.90
2018-04-29T17:14:36.860Z,2.20
2018-04-29T17:17:05.085Z,2.43
2018-04-29T17:19:33.149Z,2.20
2018-04-29T17:22:01.325Z,1.90
2018-04-29T17:24:30.342Z,1.93
2018-04-29T17:26:59.213Z,1.50
2018-04-29T17:29:27.522Z,2.40
2018-04-29T17:31:55.738Z,2.30
2018-04-29T17:34:24.050Z,2.23
2018-04-29T17:36:52.221Z,1.93
2018-04-29T17:39:20.465Z,2.00
2018-04-29T17:41:48.587Z,1.97
2018-04-29T17:44:16.751Z,1.87
2018-04-29T17:46:44.953Z,2.00
2018-04-29T17:49:13.003Z,1.70
2018-04-29T17:51:41.182Z,1.70
2018-04-29T17:54:09.136Z,1.97
2018-04-29T17:56:37.365Z,1.40
2018-04-29T17:59:05.485Z,1.87
2018-04-29T18:01:33.551Z,1.77
2018-04-29T18:04:01.691Z,1.93
2018-04-29T18:06:29.723Z,1.93
2018-04-29T18:08:57.997Z,2.40
2018-04-29T18:11:26.240Z,2.03
2018-04-29T18:13:54.251Z,2.20
2018-04-29T18:16:22.528Z,2.47
2018-04-29T18:18:50.727Z,2.47
2018-04-29T18:21:19.081Z,2.90
2018-04-29T18:23:47.255Z,2.50
2018-04-29T18:26:15.498Z,2.40
2018-04-29T18:28:43.644Z,2.60
2018-04-29T18:31:11.786Z,3.00
2018-04-29T18:33:40.147Z,2.73
2018-04-29T18:36:09.253Z,3.23
2018-04-29T18:38:38.284Z,2.70
2018-04-29T18:41:06.473Z,3.03
2018-04-29T18:43:34.769Z,4.17
2018-04-29T18:46:03.012Z,3.93
2018-04-29T18:48:32.056Z,3.47
2018-04-29T18:51:01.399Z,2.83
2018-04-29T18:53:29.272Z,2.50
2018-04-29T18:55:57.554Z,2.50
2018-04-29T18:58:26.188Z,2.80
2018-04-29T19:00:54.234Z,2.80
2018-04-29T19:03:22.426Z,2.57
2018-04-29T19:05:51.223Z,2.07
2018-04-29T19:08:19.146Z,2.03
2018-04-29T19:10:47.357Z,2.13
2018-04-29T19:13:15.545Z,2.73
2018-04-29T19:15:43.638Z,2.50
2018-04-29T19:18:11.854Z,2.70
2018-04-29T19:20:40.697Z,3.27
2018-04-29T19:23:09.541Z,3.43
2018-04-29T19:25:37.842Z,2.83
2018-04-29T19:28:06.025Z,3.13
2018-04-29T19:30:34.323Z,3.37
2018-04-29T19:33:02.581Z,3.40
2018-04-29T19:35:30.612Z,3.47
2018-04-29T19:37:58.855Z,3.37
2018-04-29T19:40:26.985Z,3.67
2018-04-29T19:42:55.002Z,3.10
2018-04-29T19:45:23.197Z,3.00
2018-04-29T19:47:51.826Z,2.90
2018-04-29T19:50:20.067Z,3.00
2018-04-29T19:52:48.309Z,3.07
2018-04-29T19:55:16.262Z,3.10
2018-04-29T19:57:44.401Z,3.27
2018-04-29T20:00:12.455Z,5.00
2018-04-29T20:02:40.451Z,3.97
2018-04-29T20:05:08.731Z,3.10
2018-04-29T20:07:36.983Z,3.00
2018-04-29T20:10:06.007Z,2.97
2018-04-29T20:12:34.968Z,3.13
2018-04-29T20:15:04.067Z,3.50
2018-04-29T20:17:33.166Z,3.90
2018-04-29T20:20:01.212Z,3.20
2018-04-29T20:22:29.327Z,3.33
2018-04-29T20:24:57.545Z,3.50
2018-04-29T20:27:25.810Z,4.20
2018-04-29T20:29:54.113Z,3.50
2018-04-29T20:32:33.954Z,3.10
2018-04-29T20:35:02.355Z,3.07
2018-04-29T20:37:30.559Z,3.40
2018-04-29T20:39:59.331Z,3.30
2018-04-29T20:42:27.416Z,3.00
2018-04-29T20:44:55.631Z,3.60
2018-04-29T20:47:23.800Z,3.10
2018-04-29T20:49:51.942Z,3.07
2018-04-29T20:52:20.089Z,2.83
2018-04-29T20:54:48.999Z,3.10
2018-04-29T20:57:17.172Z,3.30
2018-04-29T20:59:45.084Z,3.10
2018-04-29T21:02:13.253Z,3.17
2018-04-29T21:04:41.510Z,3.07
2018-04-29T21:07:09.740Z,3.40
2018-04-29T21:09:37.982Z,3.27
2018-04-29T21:12:07.011Z,3.13
2018-04-29T21:14:35.013Z,3.03
2018-04-29T21:17:03.053Z,3.07
2018-04-29T21:19:31.107Z,3.20
2018-04-29T21:21:59.290Z,3.00
2018-04-29T21:24:28.225Z,3.00
2018-04-29T21:26:56.270Z,3.00
2018-04-29T21:29:24.471Z,3.00
2018-04-29T21:31:52.707Z,3.00
2018-04-29T21:34:20.949Z,2.90
2018-04-29T21:36:48.916Z,3.40
2018-04-29T21:39:17.686Z,3.00
2018-04-29T21:41:45.825Z,2.90
2018-04-29T21:44:13.843Z,2.90
2018-04-29T21:46:42.013Z,2.83
2018-04-29T21:49:10.054Z,3.07
2018-04-29T21:51:38.252Z,3.17
2018-04-29T21:54:06.544Z,3.10
2018-04-29T21:56:34.789Z,3.03
2018-04-29T21:59:03.029Z,3.37
2018-04-29T22:01:31.507Z,3.50
2018-04-29T22:03:59.829Z,3.07
2018-04-29T22:06:28.514Z,3.47
2018-04-29T22:08:56.789Z,3.63
2018-04-29T22:11:24.983Z,2.90
2018-04-29T22:13:53.224Z,2.47
2018-04-29T22:16:21.516Z,2.77
2018-04-29T22:18:50.481Z,2.57
2018-04-29T22:21:18.711Z,2.50
2018-04-29T22:23:47.567Z,2.83
2018-04-29T22:26:15.784Z,3.30
2018-04-29T22:28:44.627Z,3.50
2018-04-29T22:31:13.468Z,3.10
2018-04-29T22:33:41.532Z,3.50
2018-04-29T22:36:09.704Z,3.10
2018-04-29T22:38:37.857Z,3.60
2018-04-29T22:41:06.100Z,3.20
2018-04-29T22:43:34.280Z,3.40
2018-04-29T22:46:03.123Z,3.57
2018-04-29T22:48:31.026Z,3.50
2018-04-29T22:50:59.268Z,3.60
2018-04-29T22:53:27.422Z,3.90
2018-04-29T22:55:55.416Z,3.63
2018-04-29T22:58:23.485Z,4.10
2018-04-29T23:00:51.556Z,3.77
2018-04-29T23:03:19.665Z,3.87
2018-04-29T23:05:47.858Z,4.47
2018-04-29T23:08:16.625Z,3.90
2018-04-29T23:10:44.813Z,4.33
2018-04-29T23:13:13.008Z,4.40
2018-04-29T23:15:41.298Z,3.90
2018-04-29T23:18:09.541Z,4.20
2018-04-29T23:20:37.787Z,3.93
2018-04-29T23:23:05.828Z,3.70
2018-04-29T23:25:34.023Z,3.67
2018-04-29T23:28:02.313Z,3.83
2018-04-29T23:30:30.561Z,4.40
2018-04-29T23:32:58.797Z,3.83
2018-04-29T23:35:27.109Z,4.63
2018-04-29T23:37:55.288Z,4.67
2018-04-29T23:40:23.398Z,5.33
2018-04-29T23:42:51.448Z,4.30
2018-04-29T23:45:19.425Z,4.27
2018-04-29T23:47:47.599Z,4.60
2018-04-29T23:50:16.495Z,4.60
2018-04-29T23:52:44.738Z,4.30
2018-04-29T23:55:12.980Z,4.47
2018-04-29T23:57:41.223Z,3.83
